Time;durP1;ratioP1;P1;durP2;ratioP2;P2;SDS_P1;SDS_P2;PMS_P1;PMS_P2;Temp;Humidity;BMP_temperature;BMP_pressure;BME280_temperature;BME280_humidity;BME280_pressure;Samples;Min_cycle;Max_cycle;Signal;HPM_P1;HPM_P2
2024/01/08 00:00:29;;;;;;;7.13;5.33;;;-2.00;99.90;;;;;;5132198;27;20549;-72
2024/01/08 00:02:55;;;;;;;5.50;4.00;;;-2.00;99.90;;;;;;5132213;27;20231;-72
2024/01/08 00:05:21;;;;;;;5.30;3.90;;;-2.10;99.90;;;;;;5132192;27;20181;-72
2024/01/08 00:07:46;;;;;;;4.20;3.87;;;-2.10;99.90;;;;;;5079529;27;20208;-72
2024/01/08 00:10:12;;;;;;;6.03;3.57;;;-2.10;99.90;;;;;;5113201;27;20185;-72
2024/01/08 00:12:37;;;;;;;3.93;3.50;;;-2.00;99.90;;;;;;5131994;27;20181;-72
2024/01/08 00:15:03;;;;;;;3.30;3.00;;;-2.10;99.90;;;;;;5113509;27;20212;-72
2024/01/08 00:17:29;;;;;;;6.50;3.93;;;-2.10;99.90;;;;;;5131178;27;20213;-72
2024/01/08 00:19:54;;;;;;;3.90;3.50;;;-2.20;99.90;;;;;;5113442;27;20181;-72
2024/01/08 00:22:20;;;;;;;3.30;3.00;;;-2.30;99.90;;;;;;5131748;27;20177;-72
2024/01/08 00:24:46;;;;;;;4.90;3.33;;;-2.30;99.90;;;;;;5112944;27;20176;-72
2024/01/08 00:27:11;;;;;;;3.30;3.00;;;-2.30;99.90;;;;;;5096186;27;20205;-72
2024/01/08 00:29:37;;;;;;;4.57;3.40;;;-2.20;99.90;;;;;;5113410;27;20189;-72
2024/01/08 00:32:05;;;;;;;3.40;2.87;;;-2.20;99.90;;;;;;5113447;27;20191;-72
2024/01/08 00:34:30;;;;;;;3.85;3.30;;;-2.20;99.90;;;;;;5113492;27;20268;-72
2024/01/08 00:36:56;;;;;;;6.13;3.37;;;-2.20;99.90;;;;;;5112749;27;20838;-72
2024/01/08 00:39:23;;;;;;;3.10;2.67;;;-2.20;99.90;;;;;;5131399;27;20182;-72
2024/01/08 00:41:49;;;;;;;3.78;3.42;;;-2.20;99.90;;;;;;5112707;27;20212;-73
2024/01/08 00:44:14;;;;;;;3.87;2.93;;;-2.20;99.90;;;;;;5095644;27;20223;-72
2024/01/08 00:46:40;;;;;;;2.60;2.37;;;-2.20;99.90;;;;;;5131431;27;20201;-73
2024/01/08 00:49:05;;;;;;;3.50;2.70;;;-2.30;99.90;;;;;;5112799;27;20189;-72
2024/01/08 00:51:31;;;;;;;2.97;2.70;;;-2.30;99.90;;;;;;5112552;27;20188;-71
2024/01/08 00:53:56;;;;;;;3.57;3.27;;;-2.20;99.90;;;;;;5131120;27;20177;-71
2024/01/08 00:56:22;;;;;;;2.90;2.20;;;-2.40;99.90;;;;;;5130954;27;20189;-72
2024/01/08 00:58:48;;;;;;;2.97;2.67;;;-2.50;99.90;;;;;;5130961;27;20181;-72
2024/01/08 01:01:14;;;;;;;2.83;2.63;;;-2.50;99.90;;;;;;5131129;27;20272;-72
2024/01/08 01:03:40;;;;;;;3.63;3.33;;;-2.60;99.90;;;;;;5131001;27;20276;-72
2024/01/08 01:06:05;;;;;;;3.80;1.90;;;-2.50;99.90;;;;;;5130937;27;20311;-72
2024/01/08 01:08:31;;;;;;;2.90;2.70;;;-2.50;99.90;;;;;;5111956;27;20270;-71
2024/01/08 01:10:57;;;;;;;3.47;3.00;;;-2.60;99.90;;;;;;5112309;27;20185;-71
2024/01/08 01:13:22;;;;;;;4.17;2.83;;;-2.60;99.90;;;;;;5130567;27;20188;-71
2024/01/08 01:15:48;;;;;;;3.37;2.57;;;-2.50;99.90;;;;;;5112024;27;20191;-72
2024/01/08 01:18:13;;;;;;;3.23;2.43;;;-2.50;99.90;;;;;;5130240;27;20594;-71
2024/01/08 01:20:39;;;;;;;3.40;2.80;;;-2.50;99.90;;;;;;5111956;27;20177;-71
2024/01/08 01:23:05;;;;;;;4.23;3.10;;;-2.50;99.90;;;;;;5130417;27;20230;-71
2024/01/08 01:25:30;;;;;;;2.53;2.33;;;-2.50;99.90;;;;;;5111792;27;20189;-71
2024/01/08 01:27:56;;;;;;;2.70;2.50;;;-2.50;99.90;;;;;;5130285;27;20208;-71
2024/01/08 01:30:21;;;;;;;2.80;2.60;;;-2.50;99.90;;;;;;5129423;27;20286;-71
2024/01/08 01:32:47;;;;;;;2.97;2.70;;;-2.40;99.90;;;;;;5130595;27;20185;-71
2024/01/08 01:35:12;;;;;;;3.80;2.77;;;-2.40;99.90;;;;;;5111856;27;20219;-71
2024/01/08 01:37:41;;;;;;;2.73;2.53;;;-2.50;99.90;;;;;;5129978;27;20730;-72
2024/01/08 01:40:08;;;;;;;2.67;2.47;;;-2.40;99.90;;;;;;5130112;27;20272;-71
2024/01/08 01:42:34;;;;;;;2.60;2.40;;;-2.40;99.90;;;;;;5111361;27;20185;-71
2024/01/08 01:44:59;;;;;;;2.23;2.13;;;-2.50;99.90;;;;;;5130304;27;20181;-71
2024/01/08 01:47:25;;;;;;;2.70;2.50;;;-2.50;99.90;;;;;;5130107;27;20204;-71
2024/01/08 01:49:51;;;;;;;4.03;2.50;;;-2.50;99.90;;;;;;5130067;27;20659;-72
2024/01/08 01:52:17;;;;;;;2.90;2.37;;;-2.50;99.90;;;;;;5129920;27;20410;-71
2024/01/08 01:54:43;;;;;;;3.38;3.08;;;-2.50;99.90;;;;;;5129951;27;20850;-71
2024/01/08 01:57:08;;;;;;;3.27;3.00;;;-2.40;99.90;;;;;;5129678;27;20219;-72
2024/01/08 01:59:34;;;;;;;3.07;2.83;;;-2.40;99.90;;;;;;5129943;27;20644;-71
2024/01/08 02:02:00;;;;;;;2.47;2.27;;;-2.40;99.90;;;;;;5111492;27;20173;-72
2024/01/08 02:04:29;;;;;;;2.92;2.60;;;-2.50;99.90;;;;;;5111244;27;20276;-71
2024/01/08 02:06:56;;;;;;;3.05;2.80;;;-2.50;99.90;;;;;;5111595;27;20209;-71
2024/01/08 02:09:22;;;;;;;3.38;2.70;;;-2.40;99.90;;;;;;5130102;27;20711;-71
2024/01/08 02:11:48;;;;;;;3.30;3.00;;;-2.50;99.90;;;;;;5130154;27;20260;-72
2024/01/08 02:14:15;;;;;;;3.10;2.90;;;-2.50;99.90;;;;;;5111197;27;20284;-72
2024/01/08 02:16:41;;;;;;;3.50;2.83;;;-2.40;99.90;;;;;;5129623;27;20209;-72
2024/01/08 02:19:08;;;;;;;3.10;2.53;;;-2.50;99.90;;;;;;5110973;27;20184;-72
2024/01/08 02:21:34;;;;;;;3.30;2.47;;;-2.40;99.90;;;;;;5111653;27;20180;-72
2024/01/08 02:24:00;;;;;;;3.10;2.80;;;-2.40;99.90;;;;;;5129500;27;20181;-72
2024/01/08 02:26:26;;;;;;;2.90;2.60;;;-2.40;99.90;;;;;;5111244;27;20266;-73
2024/01/08 02:28:52;;;;;;;3.75;2.42;;;-2.40;99.90;;;;;;5129379;27;20434;-72
2024/01/08 02:31:20;;;;;;;4.53;2.87;;;-2.40;99.90;;;;;;5129424;27;20211;-72
2024/01/08 02:33:45;;;;;;;3.60;3.15;;;-2.40;99.90;;;;;;5110563;27;20479;-72
2024/01/08 02:36:11;;;;;;;2.83;2.63;;;-2.40;99.90;;;;;;5110734;28;20276;-73
2024/01/08 02:38:37;;;;;;;3.20;2.90;;;-2.50;99.90;;;;;;5129226;28;20240;-72
2024/01/08 02:41:02;;;;;;;4.07;3.17;;;-2.50;99.90;;;;;;5133056;27;20184;-72
2024/01/08 02:43:28;;;;;;;3.13;2.93;;;-2.40;99.90;;;;;;5117514;27;20262;-72
2024/01/08 02:45:53;;;;;;;4.20;3.30;;;-2.40;99.90;;;;;;5136145;27;20177;-72
2024/01/08 02:48:19;;;;;;;3.23;2.90;;;-2.30;99.90;;;;;;5117756;27;20634;-73
2024/01/08 02:50:45;;;;;;;3.30;3.00;;;-2.30;99.90;;;;;;5136318;27;20201;-72
2024/01/08 02:53:10;;;;;;;4.10;3.20;;;-2.40;99.90;;;;;;5135837;27;20285;-72
2024/01/08 02:55:36;;;;;;;3.20;2.90;;;-2.40;99.90;;;;;;5136110;27;20569;-72
2024/01/08 02:58:04;;;;;;;4.60;3.37;;;-2.40;99.90;;;;;;5117181;27;20254;-72
2024/01/08 03:00:30;;;;;;;3.75;3.42;;;-2.30;99.90;;;;;;5135830;27;20211;-73
2024/01/08 03:02:56;;;;;;;3.30;3.10;;;-2.30;99.90;;;;;;5135958;27;20212;-73
2024/01/08 03:05:21;;;;;;;7.00;3.03;;;-2.30;99.90;;;;;;5136077;27;20181;-73
2024/01/08 03:07:47;;;;;;;4.23;3.33;;;-2.40;99.90;;;;;;5100326;27;20211;-73
2024/01/08 03:10:13;;;;;;;5.03;3.70;;;-2.30;99.90;;;;;;5135851;27;20604;-73
2024/01/08 03:12:38;;;;;;;6.63;3.73;;;-2.30;99.90;;;;;;5117195;27;20183;-73
2024/01/08 03:15:04;;;;;;;4.43;3.53;;;-2.40;99.90;;;;;;5100432;27;20177;-73
2024/01/08 03:17:30;;;;;;;3.60;3.30;;;-2.40;99.90;;;;;;5117169;27;20607;-72
2024/01/08 03:19:56;;;;;;;3.07;2.87;;;-2.40;99.90;;;;;;5117014;27;20193;-72
2024/01/08 03:22:21;;;;;;;4.50;3.53;;;-2.40;99.90;;;;;;5135633;27;20539;-72
2024/01/08 03:24:47;;;;;;;2.93;2.70;;;-2.30;99.90;;;;;;5117301;27;20436;-72
2024/01/08 03:27:12;;;;;;;6.40;3.23;;;-2.30;99.90;;;;;;5116859;27;20201;-72
2024/01/08 03:29:38;;;;;;;5.30;3.43;;;-2.30;99.90;;;;;;5100123;27;20176;-73
2024/01/08 03:32:04;;;;;;;4.30;3.67;;;-2.30;99.90;;;;;;5135582;27;20189;-72
2024/01/08 03:34:30;;;;;;;4.07;3.67;;;-2.30;99.90;;;;;;5135746;27;20187;-73
2024/01/08 03:36:55;;;;;;;3.57;3.23;;;-2.20;99.90;;;;;;5135410;27;20917;-72
2024/01/08 03:39:21;;;;;;;5.37;3.43;;;-2.20;99.90;;;;;;5135834;27;20892;-72
2024/01/08 03:41:46;;;;;;;3.27;2.97;;;-2.20;99.90;;;;;;5117131;27;20177;-72
2024/01/08 03:44:14;;;;;;;5.53;3.83;;;-2.20;99.90;;;;;;5135631;27;20648;-72
2024/01/08 03:46:39;;;;;;;3.90;3.15;;;-2.20;99.90;;;;;;5100108;27;20208;-72
2024/01/08 03:49:06;;;;;;;4.80;3.47;;;-2.30;99.90;;;;;;5117094;27;20188;-72
2024/01/08 03:51:32;;;;;;;3.38;3.08;;;-2.30;99.90;;;;;;5134511;27;20213;-72
2024/01/08 03:53:58;;;;;;;3.60;3.30;;;-2.30;99.90;;;;;;5131631;27;20209;-73
2024/01/08 03:56:23;;;;;;;3.73;3.40;;;-2.30;99.90;;;;;;5132211;27;20184;-73
2024/01/08 03:58:49;;;;;;;3.10;2.90;;;-2.30;99.90;;;;;;5113717;27;20208;-74
2024/01/08 04:01:15;;;;;;;3.53;2.83;;;-2.40;99.90;;;;;;5132194;27;20230;-73
2024/01/08 04:03:41;;;;;;;2.80;2.60;;;-2.30;99.90;;;;;;5132087;27;20181;-73
2024/01/08 04:06:07;;;;;;;3.10;2.80;;;-2.30;99.90;;;;;;5113553;27;20189;-73
2024/01/08 04:08:32;;;;;;;3.40;3.10;;;-2.30;99.90;;;;;;5113263;27;20270;-72
2024/01/08 04:10:58;;;;;;;4.10;3.30;;;-2.20;99.90;;;;;;5096625;27;20877;-72
2024/01/08 04:13:23;;;;;;;3.07;2.80;;;-2.30;99.90;;;;;;5113343;27;20188;-73
2024/01/08 04:15:49;;;;;;;3.10;2.80;;;-2.30;99.90;;;;;;5131783;27;20690;-72
2024/01/08 04:18:15;;;;;;;4.30;3.90;;;-2.30;99.90;;;;;;5131608;27;20213;-71
2024/01/08 04:20:41;;;;;;;3.60;3.30;;;-2.30;99.90;;;;;;5131957;27;20173;-72
2024/01/08 04:23:06;;;;;;;3.80;3.20;;;-2.30;99.90;;;;;;5132059;27;20731;-72
2024/01/08 04:25:32;;;;;;;3.47;3.17;;;-2.30;99.90;;;;;;5132041;27;20413;-72
2024/01/08 04:27:57;;;;;;;12.73;3.30;;;-2.40;99.90;;;;;;5113095;27;20258;-72
2024/01/08 04:30:23;;;;;;;5.20;3.10;;;-2.40;99.90;;;;;;5113335;27;20703;-72
2024/01/08 04:32:49;;;;;;;3.00;2.70;;;-2.40;99.90;;;;;;5113245;27;20666;-72
2024/01/08 04:35:14;;;;;;;4.37;2.90;;;-2.30;99.90;;;;;;5113018;27;20192;-72
2024/01/08 04:37:40;;;;;;;3.10;2.90;;;-2.30;99.90;;;;;;5131318;27;20212;-72
2024/01/08 04:40:08;;;;;;;4.93;2.70;;;-2.30;99.90;;;;;;5112820;27;20248;-72
2024/01/08 04:42:33;;;;;;;5.90;2.97;;;-2.30;99.90;;;;;;5131335;27;20929;-71
2024/01/08 04:44:59;;;;;;;2.97;2.10;;;-2.30;99.90;;;;;;5113042;27;20196;-72
2024/01/08 04:47:25;;;;;;;3.03;2.83;;;-2.40;99.90;;;;;;5112949;27;20212;-71
2024/01/08 04:49:50;;;;;;;2.63;2.43;;;-2.40;99.90;;;;;;5131436;27;20185;-72
2024/01/08 04:52:16;;;;;;;2.87;2.67;;;-2.40;99.90;;;;;;5113031;27;20509;-72
2024/01/08 04:54:42;;;;;;;3.23;2.60;;;-2.30;99.90;;;;;;5112719;27;20276;-72
2024/01/08 04:57:08;;;;;;;2.75;2.55;;;-2.40;99.90;;;;;;5112433;27;20216;-72
2024/01/08 04:59:43;;;;;;;2.88;2.22;;;-2.30;99.90;;;;;;5130221;27;20188;-73
2024/01/08 05:02:10;;;;;;;2.55;2.42;;;-2.30;99.90;;;;;;5111173;27;20970;-71
2024/01/08 05:04:36;;;;;;;2.47;2.30;;;-2.40;99.90;;;;;;5129605;27;20640;-72
2024/01/08 05:07:02;;;;;;;2.80;2.30;;;-2.50;99.90;;;;;;5111548;27;20215;-72
2024/01/08 05:09:29;;;;;;;3.00;2.55;;;-2.40;99.90;;;;;;5129541;27;20220;-72
2024/01/08 05:11:55;;;;;;;2.65;2.45;;;-2.40;99.90;;;;;;5129168;27;20555;-72
2024/01/08 05:14:20;;;;;;;3.37;3.07;;;-2.30;99.90;;;;;;5129231;27;20185;-72
2024/01/08 05:16:46;;;;;;;4.10;2.90;;;-2.30;99.90;;;;;;5129078;27;20216;-72
2024/01/08 05:19:12;;;;;;;2.67;2.47;;;-2.30;99.90;;;;;;5110531;27;20181;-72
2024/01/08 05:21:37;;;;;;;4.10;2.83;;;-2.30;99.90;;;;;;5110672;27;20553;-72
2024/01/08 05:24:03;;;;;;;3.40;3.10;;;-2.20;99.90;;;;;;5129219;27;20254;-73
2024/01/08 05:26:29;;;;;;;4.07;2.67;;;-2.20;99.90;;;;;;5129104;27;20199;-72
2024/01/08 05:28:54;;;;;;;5.10;3.47;;;-2.30;99.90;;;;;;5129111;27;20648;-72
2024/01/08 05:31:22;;;;;;;2.83;2.63;;;-2.20;99.90;;;;;;5093400;27;20173;-72
2024/01/08 05:33:49;;;;;;;3.20;3.00;;;-2.30;99.90;;;;;;5110930;27;20173;-72
2024/01/08 05:36:14;;;;;;;5.28;3.78;;;-2.20;99.90;;;;;;5128792;27;20270;-72
2024/01/08 05:38:40;;;;;;;2.93;2.73;;;-2.30;99.90;;;;;;5110461;27;20614;-72
2024/01/08 05:41:05;;;;;;;3.20;2.90;;;-2.20;99.90;;;;;;5110284;27;20264;-72
2024/01/08 05:43:37;;;;;;;4.47;3.13;;;-2.20;99.90;;;;;;5128941;27;20840;-73
2024/01/08 05:46:06;;;;;;;3.70;3.40;;;-2.30;99.90;;;;;;5128970;27;20632;-72
2024/01/08 05:48:37;;;;;;;4.43;3.17;;;-2.30;99.90;;;;;;5128599;27;20201;-72
2024/01/08 05:51:09;;;;;;;4.75;3.42;;;-2.30;99.90;;;;;;5110939;27;20278;-74
2024/01/08 05:53:35;;;;;;;6.00;3.20;;;-2.30;99.90;;;;;;5110105;27;20263;-71
2024/01/08 05:56:00;;;;;;;3.57;3.27;;;-2.30;99.90;;;;;;5128854;27;20181;-72
2024/01/08 05:58:26;;;;;;;4.83;4.10;;;-2.30;99.90;;;;;;5128644;27;20231;-72
2024/01/08 06:00:53;;;;;;;3.67;3.27;;;-2.30;99.90;;;;;;5110605;27;20192;-72
2024/01/08 06:03:20;;;;;;;3.85;3.50;;;-2.20;99.90;;;;;;5110536;27;20873;-72
2024/01/08 06:05:45;;;;;;;6.78;3.67;;;-2.30;99.90;;;;;;5110903;27;20371;-71
2024/01/08 06:08:11;;;;;;;3.00;2.70;;;-2.30;99.90;;;;;;5111144;28;20684;-72
2024/01/08 06:10:38;;;;;;;6.67;3.80;;;-2.30;99.90;;;;;;5129477;27;20209;-71
2024/01/08 06:13:05;;;;;;;4.80;3.45;;;-2.30;99.90;;;;;;5110966;27;20177;-71
2024/01/08 06:15:30;;;;;;;4.72;3.78;;;-2.40;99.90;;;;;;5128279;27;20181;-72
2024/01/08 06:17:56;;;;;;;4.20;3.20;;;-2.50;99.90;;;;;;5129013;27;20227;-72
2024/01/08 06:20:22;;;;;;;4.80;3.60;;;-2.60;99.90;;;;;;5110562;27;20972;-72
2024/01/08 06:22:47;;;;;;;3.93;3.53;;;-2.50;99.90;;;;;;5128912;27;20184;-72
2024/01/08 06:25:13;;;;;;;3.30;3.00;;;-2.50;99.90;;;;;;5110480;27;20190;-70
2024/01/08 06:27:38;;;;;;;6.23;3.37;;;-2.50;99.90;;;;;;5110333;27;20250;-72
2024/01/08 06:30:05;;;;;;;5.07;3.23;;;-2.60;99.90;;;;;;5128459;27;20270;-72
2024/01/08 06:32:30;;;;;;;5.07;3.90;;;-2.60;99.90;;;;;;5128182;27;20185;-72
2024/01/08 06:34:56;;;;;;;5.47;3.97;;;-2.50;99.90;;;;;;5128205;27;20309;-72
2024/01/08 06:37:22;;;;;;;8.73;6.00;;;-2.50;99.90;;;;;;5109195;28;20225;-72
2024/01/08 06:39:47;;;;;;;4.10;3.50;;;-2.60;99.90;;;;;;5127894;28;20267;-72
2024/01/08 06:42:13;;;;;;;4.40;3.73;;;-2.50;99.90;;;;;;5128036;27;20418;-72
2024/01/08 06:44:39;;;;;;;3.73;3.43;;;-2.60;99.90;;;;;;5109095;28;20181;-72
2024/01/08 06:47:05;;;;;;;5.30;3.60;;;-2.60;99.90;;;;;;5128016;28;20207;-72
2024/01/08 06:49:30;;;;;;;4.60;3.63;;;-2.60;99.90;;;;;;5109495;28;20188;-72
2024/01/08 06:51:56;;;;;;;5.33;4.10;;;-2.50;99.90;;;;;;5127820;28;20488;-71
2024/01/08 06:54:22;;;;;;;3.80;3.50;;;-2.50;99.90;;;;;;5127825;28;20189;-72
2024/01/08 06:56:48;;;;;;;5.10;3.97;;;-2.40;99.90;;;;;;5127589;28;20614;-72
2024/01/08 06:59:15;;;;;;;6.37;3.90;;;-2.30;99.90;;;;;;5127807;28;20177;-72
2024/01/08 07:01:41;;;;;;;5.70;4.60;;;-2.30;99.90;;;;;;5109395;28;20183;-72
2024/01/08 07:04:06;;;;;;;6.03;4.30;;;-2.30;99.90;;;;;;5109406;28;20256;-72
2024/01/08 07:06:32;;;;;;;4.90;4.17;;;-2.30;99.90;;;;;;5109140;28;20211;-72
2024/01/08 07:08:58;;;;;;;4.20;3.90;;;-2.30;99.90;;;;;;5109128;28;20235;-72
2024/01/08 07:11:24;;;;;;;5.93;4.57;;;-2.40;99.90;;;;;;5127709;28;20198;-72
2024/01/08 07:13:50;;;;;;;5.68;4.20;;;-2.40;99.90;;;;;;5127595;28;20268;-72
2024/01/08 07:16:17;;;;;;;6.05;3.83;;;-2.40;99.90;;;;;;5127941;28;20173;-72
2024/01/08 07:18:43;;;;;;;5.00;3.70;;;-2.40;99.90;;;;;;5109112;28;20220;-72
2024/01/08 07:21:11;;;;;;;5.72;4.25;;;-2.30;99.90;;;;;;5109050;28;20577;-73
2024/01/08 07:23:37;;;;;;;6.88;4.50;;;-2.40;99.90;;;;;;5127579;27;20264;-72
2024/01/08 07:26:03;;;;;;;7.23;5.00;;;-2.30;99.90;;;;;;5127300;27;20260;-73
2024/01/08 07:28:29;;;;;;;9.17;5.10;;;-2.30;99.90;;;;;;5111627;27;20208;-73
2024/01/08 07:30:54;;;;;;;5.67;4.60;;;-2.30;99.90;;;;;;5131373;27;20185;-72
2024/01/08 07:33:23;;;;;;;8.40;5.30;;;-2.30;99.90;;;;;;5131041;27;20520;-71
2024/01/08 07:35:49;;;;;;;7.00;5.10;;;-2.20;99.90;;;;;;5112428;27;20180;-73
2024/01/08 07:38:15;;;;;;;5.30;4.50;;;-2.20;99.90;;;;;;5130962;27;20216;-73
2024/01/08 07:40:40;;;;;;;9.33;4.50;;;-2.20;99.90;;;;;;5131099;27;20173;-72
2024/01/08 07:43:06;;;;;;;5.40;4.73;;;-2.20;99.90;;;;;;5131512;27;20191;-73
2024/01/08 07:45:32;;;;;;;5.23;4.00;;;-2.20;99.90;;;;;;5112260;27;20181;-73
2024/01/08 07:47:57;;;;;;;6.17;5.57;;;-2.20;99.90;;;;;;5130978;27;20196;-73
2024/01/08 07:50:23;;;;;;;6.17;4.70;;;-2.20;99.90;;;;;;5130814;27;20252;-73
2024/01/08 07:52:49;;;;;;;5.97;4.80;;;-2.10;99.90;;;;;;5130840;27;20234;-73
2024/01/08 07:55:14;;;;;;;5.53;4.60;;;-2.20;99.90;;;;;;5095311;27;20976;-72
2024/01/08 07:57:40;;;;;;;5.00;4.50;;;-2.20;99.90;;;;;;5130574;27;20223;-73
2024/01/08 08:00:09;;;;;;;6.63;4.10;;;-2.20;99.90;;;;;;5130740;27;20257;-72
2024/01/08 08:02:35;;;;;;;7.80;4.38;;;-2.20;99.90;;;;;;5130701;27;20173;-73
2024/01/08 08:05:01;;;;;;;6.97;3.95;;;-2.20;99.90;;;;;;5130835;27;20181;-73
2024/01/08 08:07:28;;;;;;;4.97;4.43;;;-2.20;99.90;;;;;;5130390;27;20205;-72
2024/01/08 08:09:54;;;;;;;4.43;4.03;;;-2.10;99.90;;;;;;5112097;27;20185;-73
2024/01/08 08:12:20;;;;;;;4.65;3.80;;;-2.10;99.90;;;;;;5103828;27;20204;-73
2024/01/08 08:14:48;;;;;;;6.30;4.57;;;-2.10;99.90;;;;;;5130497;27;20231;-72
2024/01/08 08:17:15;;;;;;;5.78;5.10;;;-2.10;99.90;;;;;;5130371;27;20505;-73
2024/01/08 08:19:42;;;;;;;5.20;4.75;;;-2.10;99.90;;;;;;5130362;27;20181;-72
2024/01/08 08:22:11;;;;;;;7.40;5.97;;;-2.20;99.90;;;;;;5111430;27;20185;-72
2024/01/08 08:24:41;;;;;;;5.43;4.13;;;-2.10;99.90;;;;;;5130231;27;20185;-72
2024/01/08 08:27:10;;;;;;;4.78;4.20;;;-2.00;99.90;;;;;;5130917;27;20216;-72
2024/01/08 08:29:41;;;;;;;7.68;4.82;;;-2.00;99.90;;;;;;5111661;27;20206;-72
2024/01/08 08:32:07;;;;;;;4.97;4.20;;;-2.00;99.90;;;;;;5130498;27;20190;-72
2024/01/08 08:34:34;;;;;;;4.68;4.22;;;-2.10;99.90;;;;;;5094334;27;20181;-73
2024/01/08 08:36:59;;;;;;;13.35;7.28;;;-2.00;99.90;;;;;;5129776;27;20212;-73
2024/01/08 08:39:27;;;;;;;21.48;11.00;;;-2.10;99.90;;;;;;5129598;27;20205;-72
2024/01/08 08:41:54;;;;;;;8.75;6.90;;;-2.00;99.90;;;;;;5129896;27;20246;-72
2024/01/08 08:44:20;;;;;;;8.10;5.30;;;-2.00;99.90;;;;;;5129756;27;20169;-72
2024/01/08 08:46:46;;;;;;;6.83;5.30;;;-2.00;99.90;;;;;;5129761;27;20244;-72
2024/01/08 08:49:13;;;;;;;7.60;5.47;;;-1.90;99.90;;;;;;5129829;27;20502;-71
2024/01/08 08:51:39;;;;;;;6.78;4.72;;;-2.00;99.90;;;;;;5110940;27;20697;-75
2024/01/08 08:54:06;;;;;;;5.63;4.90;;;-2.00;99.90;;;;;;5111290;27;20205;-72
2024/01/08 08:56:35;;;;;;;5.35;4.68;;;-2.00;99.90;;;;;;5111107;27;20168;-72
2024/01/08 08:59:01;;;;;;;5.25;3.95;;;-2.00;99.90;;;;;;5129796;27;20853;-72
2024/01/08 09:01:27;;;;;;;5.80;4.80;;;-2.00;99.90;;;;;;5110679;27;20189;-72
2024/01/08 09:03:52;;;;;;;6.57;4.83;;;-2.10;99.90;;;;;;5129449;27;20173;-72
2024/01/08 09:06:20;;;;;;;5.77;4.60;;;-2.00;99.90;;;;;;5110817;27;20416;-72
2024/01/08 09:08:47;;;;;;;6.15;4.55;;;-2.10;99.90;;;;;;5111254;27;20184;-72
2024/01/08 09:11:13;;;;;;;5.30;4.38;;;-1.90;99.90;;;;;;5111005;27;20222;-70
2024/01/08 09:13:38;;;;;;;6.68;4.95;;;-2.00;99.90;;;;;;5110638;27;20185;-72
2024/01/08 09:16:04;;;;;;;4.50;4.10;;;-2.00;99.90;;;;;;5129392;27;20199;-71
2024/01/08 09:18:30;;;;;;;8.63;5.40;;;-1.90;99.90;;;;;;5128985;27;20210;-72
2024/01/08 09:20:55;;;;;;;12.20;5.40;;;-1.90;99.90;;;;;;5129092;27;20186;-73
2024/01/08 09:23:21;;;;;;;6.60;4.50;;;-1.90;99.90;;;;;;5093496;27;20181;-73
2024/01/08 09:25:47;;;;;;;6.28;5.00;;;-2.00;99.90;;;;;;5129005;27;20181;-73
2024/01/08 09:28:13;;;;;;;4.40;4.00;;;-2.00;99.90;;;;;;5110334;27;20213;-72
2024/01/08 09:30:38;;;;;;;6.37;5.70;;;-1.90;99.90;;;;;;5129113;27;20185;-72
2024/01/08 09:33:04;;;;;;;13.80;5.30;;;-2.00;99.90;;;;;;5129058;27;20185;-71
2024/01/08 09:35:30;;;;;;;6.00;4.77;;;-1.90;99.90;;;;;;5093105;27;20185;-73
2024/01/08 09:37:55;;;;;;;7.40;5.00;;;-1.90;99.90;;;;;;5128812;27;20293;-73
2024/01/08 09:40:21;;;;;;;7.73;4.60;;;-1.90;99.90;;;;;;5110190;27;20205;-72
2024/01/08 09:42:49;;;;;;;5.90;5.10;;;-1.90;99.90;;;;;;5110298;27;20199;-72
2024/01/08 09:45:22;;;;;;;5.05;4.53;;;-1.80;99.90;;;;;;5128666;27;20511;-71
2024/01/08 09:47:48;;;;;;;5.15;3.72;;;-1.80;99.90;;;;;;5110182;27;20212;-72
2024/01/08 09:50:15;;;;;;;5.43;3.67;;;-1.90;99.90;;;;;;5128066;27;20285;-72
2024/01/08 09:52:42;;;;;;;4.18;3.58;;;-2.00;99.90;;;;;;5128531;27;20180;-72
2024/01/08 09:55:09;;;;;;;5.72;4.30;;;-1.90;99.90;;;;;;5128840;27;20195;-72
2024/01/08 09:57:35;;;;;;;4.25;3.88;;;-2.00;99.90;;;;;;5092746;27;20240;-72
2024/01/08 10:00:02;;;;;;;4.77;3.47;;;-1.90;99.90;;;;;;5128433;27;20223;-72
2024/01/08 10:02:28;;;;;;;4.05;3.65;;;-2.00;99.90;;;;;;5128383;27;20204;-72
2024/01/08 10:04:54;;;;;;;6.90;3.27;;;-1.90;99.90;;;;;;5092898;27;20219;-72
2024/01/08 10:07:19;;;;;;;3.57;3.27;;;-2.10;99.90;;;;;;5128220;27;20299;-72
2024/01/08 10:09:45;;;;;;;4.50;3.30;;;-2.00;99.90;;;;;;5128272;27;20415;-72
2024/01/08 10:12:11;;;;;;;5.50;3.80;;;-2.00;99.90;;;;;;5128193;27;20956;-72
2024/01/08 10:14:37;;;;;;;5.43;3.25;;;-2.00;99.90;;;;;;5109678;27;20539;-72
2024/01/08 10:17:03;;;;;;;5.10;4.47;;;-2.10;99.90;;;;;;5127885;27;20226;-73
2024/01/08 10:19:29;;;;;;;7.50;4.10;;;-2.00;99.90;;;;;;5109829;27;20182;-72
2024/01/08 10:22:09;;;;;;;6.68;4.40;;;-2.10;99.90;;;;;;5128087;27;20177;-72
2024/01/08 10:24:38;;;;;;;6.00;3.90;;;-2.10;99.90;;;;;;5109352;27;20759;-72
2024/01/08 10:27:04;;;;;;;4.32;3.90;;;-2.10;99.90;;;;;;5127774;27;20203;-71
2024/01/08 10:29:30;;;;;;;5.90;4.80;;;-2.00;99.90;;;;;;5109344;27;20808;-72
2024/01/08 10:31:56;;;;;;;4.70;3.78;;;-2.00;99.90;;;;;;5128223;27;20204;-74
2024/01/08 10:34:23;;;;;;;4.13;3.73;;;-2.10;99.90;;;;;;5110023;28;20185;-72
2024/01/08 10:36:50;;;;;;;3.95;3.42;;;-2.20;99.90;;;;;;5127763;27;20223;-72
2024/01/08 10:39:17;;;;;;;4.13;3.30;;;-2.00;99.90;;;;;;5127985;27;20185;-73
2024/01/08 10:41:43;;;;;;;3.80;3.30;;;-2.00;99.90;;;;;;5127773;28;20169;-73
2024/01/08 10:44:08;;;;;;;15.70;5.40;;;-2.00;99.90;;;;;;5109383;28;20177;-73
2024/01/08 10:46:45;;;;;;;7.73;4.83;;;-1.90;99.90;;;;;;5128091;28;20510;-72
2024/01/08 10:49:18;;;;;;;7.03;3.88;;;-1.90;99.90;;;;;;5127863;28;20183;-72
2024/01/08 10:51:47;;;;;;;5.32;3.83;;;-2.10;99.90;;;;;;5127684;28;20181;-72
2024/01/08 10:54:16;;;;;;;5.05;4.15;;;-2.00;99.90;;;;;;5128099;28;20177;-71
2024/01/08 10:56:42;;;;;;;6.50;4.95;;;-2.10;99.90;;;;;;5127591;28;20204;-73
2024/01/08 10:59:10;;;;;;;6.23;5.00;;;-2.10;99.90;;;;;;5109388;28;20181;-73
2024/01/08 11:01:38;;;;;;;6.45;4.50;;;-2.00;99.90;;;;;;5111058;27;20671;-73
2024/01/08 11:04:05;;;;;;;9.23;5.55;;;-2.00;99.90;;;;;;5132252;27;20188;-73
2024/01/08 11:06:33;;;;;;;6.20;4.95;;;-2.00;99.90;;;;;;5132006;27;20222;-73
2024/01/08 11:09:01;;;;;;;5.00;4.10;;;-1.90;99.90;;;;;;5132038;27;20177;-73
2024/01/08 11:11:27;;;;;;;5.25;4.15;;;-2.00;99.90;;;;;;5131955;27;20173;-72
2024/01/08 11:13:52;;;;;;;7.03;4.60;;;-1.90;99.90;;;;;;5113517;27;20667;-72
2024/01/08 11:16:30;;;;;;;3.90;3.57;;;-1.70;99.90;;;;;;5113716;27;20501;-73
2024/01/08 11:19:18;;;;;;;6.45;3.85;;;-1.70;99.90;;;;;;5113329;27;20220;-72
2024/01/08 11:21:44;;;;;;;6.38;4.78;;;-1.60;99.90;;;;;;5132476;27;20173;-73
2024/01/08 11:24:10;;;;;;;8.25;4.25;;;-1.60;99.90;;;;;;5113700;27;20669;-72
2024/01/08 11:26:48;;;;;;;6.57;5.13;;;-1.70;99.90;;;;;;5132095;27;20207;-71
2024/01/08 11:29:17;;;;;;;4.70;3.40;;;-1.60;99.90;;;;;;5096775;27;20426;-72
2024/01/08 11:32:20;;;;;;;6.65;4.53;;;-1.60;99.90;;;;;;5113446;27;20260;-72
2024/01/08 11:34:57;;;;;;;8.35;5.55;;;-1.60;99.90;;;;;;5131819;27;20532;-71
2024/01/08 11:37:39;;;;;;;5.10;3.95;;;-1.60;99.90;;;;;;5131641;27;20212;-72
2024/01/08 11:40:18;;;;;;;5.53;3.75;;;-1.60;99.90;;;;;;5131919;27;20960;-72
2024/01/08 11:42:50;;;;;;;7.82;5.07;;;-1.60;99.90;;;;;;5131607;27;20260;-72
2024/01/08 11:45:16;;;;;;;4.82;4.32;;;-1.60;99.90;;;;;;5112973;27;20566;-70
2024/01/08 11:47:43;;;;;;;22.55;4.65;;;-1.50;99.90;;;;;;5112890;27;20201;-72
2024/01/08 11:50:10;;;;;;;7.63;4.57;;;-1.50;99.90;;;;;;5112878;27;20185;-72
2024/01/08 11:52:40;;;;;;;12.55;4.40;;;-1.50;99.90;;;;;;5112287;27;20185;-72
2024/01/08 11:55:07;;;;;;;4.07;3.78;;;-1.40;99.90;;;;;;5112106;27;20181;-72
2024/01/08 11:57:34;;;;;;;5.25;4.10;;;-1.40;99.90;;;;;;5130624;27;20691;-72
2024/01/08 12:00:10;;;;;;;16.05;6.80;;;-1.30;99.90;;;;;;5131011;27;20185;-72
2024/01/08 12:02:38;;;;;;;11.40;7.28;;;-1.40;99.90;;;;;;5131165;27;20187;-72
2024/01/08 12:05:04;;;;;;;14.55;8.50;;;-1.30;99.90;;;;;;5096071;27;20188;-72
2024/01/08 12:07:31;;;;;;;13.90;9.10;;;-1.20;99.90;;;;;;5131115;27;20208;-72
2024/01/08 12:10:01;;;;;;;7.10;5.22;;;-1.30;99.90;;;;;;5111799;27;20216;-72
2024/01/08 12:12:27;;;;;;;7.45;4.85;;;-1.10;99.90;;;;;;5130876;27;20173;-72
2024/01/08 12:14:53;;;;;;;6.60;4.70;;;-1.00;99.90;;;;;;5111601;27;20859;-72
2024/01/08 12:17:19;;;;;;;5.40;4.50;;;-1.00;99.90;;;;;;5094774;27;20287;-72
2024/01/08 12:19:48;;;;;;;5.20;4.70;;;-1.10;99.90;;;;;;5095159;27;20596;-72
2024/01/08 12:22:16;;;;;;;4.95;4.20;;;-1.10;99.90;;;;;;5130499;27;20870;-71
2024/01/08 12:24:45;;;;;;;6.95;5.20;;;-1.10;99.90;;;;;;5130325;27;20185;-71
2024/01/08 12:27:14;;;;;;;7.93;5.00;;;-1.10;99.90;;;;;;5094726;27;20205;-72
2024/01/08 12:29:40;;;;;;;5.95;4.22;;;-1.20;99.90;;;;;;5130473;27;20201;-72
2024/01/08 12:32:08;;;;;;;3.95;3.55;;;-1.30;99.90;;;;;;5094875;27;20185;-73
2024/01/08 12:34:37;;;;;;;4.97;4.30;;;-1.40;99.90;;;;;;5130535;27;20186;-73
2024/01/08 12:37:04;;;;;;;5.30;4.03;;;-1.50;99.90;;;;;;5129870;27;20308;-72
2024/01/08 12:39:33;;;;;;;6.60;4.50;;;-1.60;99.90;;;;;;5130002;27;20260;-72
2024/01/08 12:42:05;;;;;;;4.18;3.78;;;-1.50;99.90;;;;;;5130376;27;20284;-72